Time;durP1;ratioP1;P1;durP2;ratioP2;P2;SDS_P1;SDS_P2;PMS_P1;PMS_P2;Temp;Humidity;BMP_temperature;BMP_pressure;BME280_temperature;BME280_humidity;BME280_pressure;Samples;Min_cycle;Max_cycle;Signal;HPM_P1;HPM_P2
2023/12/07 00:01:01;;;;;;;24.85;12.10;;;;;;;;;;5017736;28;20082;-91
2023/12/07 00:03:33;;;;;;;21.88;11.23;;;;;;;;;;5032342;28;20061;-91
2023/12/07 00:06:15;;;;;;;25.63;12.00;;;;;;;;;;5013989;28;20045;-90
2023/12/07 00:08:50;;;;;;;21.60;10.93;;;;;;;;;;5014146;28;20061;-92
2023/12/07 00:11:21;;;;;;;21.13;10.85;;;;;;;;;;5013595;28;20065;-91
2023/12/07 00:13:57;;;;;;;31.25;11.27;;;;;;;;;;5012852;28;20058;-90
2023/12/07 00:16:39;;;;;;;22.70;11.60;;;;;;;;;;5012443;28;20097;-91
2023/12/07 00:19:21;;;;;;;26.80;13.45;;;;;;;;;;5011268;28;20041;-91
2023/12/07 00:22:02;;;;;;;27.05;13.65;;;;;;;;;;5011195;28;20056;-91
2023/12/07 00:24:43;;;;;;;22.92;11.32;;;;;;;;;;5012890;28;20054;-91
2023/12/07 00:27:27;;;;;;;25.25;12.10;;;;;;;;;;5013230;28;20057;-91
2023/12/07 00:30:11;;;;;;;25.30;12.02;;;;;;;;;;5013765;28;20120;-91
2023/12/07 00:32:52;;;;;;;22.23;9.60;;;;;;;;;;5013857;28;20058;-91
2023/12/07 00:35:37;;;;;;;20.95;11.02;;;;;;;;;;5032044;28;20057;-91
2023/12/07 00:38:20;;;;;;;25.55;12.38;;;;;;;;;;5016316;28;20092;-91
2023/12/07 00:41:01;;;;;;;23.25;11.32;;;;;;;;;;5010715;28;20064;-90
2023/12/07 00:43:31;;;;;;;29.30;12.82;;;;;;;;;;5010417;28;20062;-91
2023/12/07 00:46:02;;;;;;;22.98;11.68;;;;;;;;;;5016433;28;20080;-91
2023/12/07 00:48:31;;;;;;;32.03;13.25;;;;;;;;;;5013917;28;20112;-91
2023/12/07 00:51:16;;;;;;;22.60;11.13;;;;;;;;;;5014197;23;20049;-92
2023/12/07 00:54:10;;;;;;;24.67;11.88;;;;;;;;;;5016288;23;20053;-91
2023/12/07 00:56:45;;;;;;;22.60;11.77;;;;;;;;;;5028286;28;20085;-90
2023/12/07 00:59:32;;;;;;;24.73;12.20;;;;;;;;;;5010539;28;20081;-90
2023/12/07 01:02:15;;;;;;;24.33;11.95;;;;;;;;;;5013072;28;20069;-89
2023/12/07 01:04:57;;;;;;;23.00;11.07;;;;;;;;;;5009374;28;20068;-89
2023/12/07 01:07:39;;;;;;;22.70;11.73;;;;;;;;;;5011132;28;20050;-89
2023/12/07 01:10:21;;;;;;;26.45;12.73;;;;;;;;;;5011779;28;20061;-89
2023/12/07 01:13:06;;;;;;;23.77;11.85;;;;;;;;;;5010864;28;20052;-89
2023/12/07 01:15:55;;;;;;;27.58;12.55;;;;;;;;;;5010691;28;20041;-90
2023/12/07 01:18:37;;;;;;;30.30;13.65;;;;;;;;;;5011737;28;20124;-90
2023/12/07 01:21:21;;;;;;;26.23;11.95;;;;;;;;;;5009728;28;20049;-91
2023/12/07 01:24:14;;;;;;;26.52;12.75;;;;;;;;;;5025969;28;20132;-90
2023/12/07 01:27:11;;;;;;;26.55;12.18;;;;;;;;;;5027452;28;20104;-90
2023/12/07 01:30:08;;;;;;;24.10;12.05;;;;;;;;;;5028298;28;20081;-88
2023/12/07 01:32:51;;;;;;;23.52;12.48;;;;;;;;;;5009610;28;20136;-89
2023/12/07 01:35:34;;;;;;;26.27;12.23;;;;;;;;;;5025405;28;20042;-89
2023/12/07 01:38:12;;;;;;;23.25;11.40;;;;;;;;;;5009810;28;20132;-89
2023/12/07 01:40:57;;;;;;;28.20;12.98;;;;;;;;;;5025022;28;20116;-88
2023/12/07 01:43:37;;;;;;;26.98;12.73;;;;;;;;;;5025478;28;20050;-89
2023/12/07 01:46:25;;;;;;;27.10;12.32;;;;;;;;;;5025426;23;20085;-89
2023/12/07 01:49:05;;;;;;;31.30;13.15;;;;;;;;;;5010488;28;20060;-89
2023/12/07 01:51:45;;;;;;;25.30;12.20;;;;;;;;;;5014915;28;20045;-89
2023/12/07 01:54:21;;;;;;;25.23;11.68;;;;;;;;;;5009657;28;20065;-90
2023/12/07 01:57:07;;;;;;;19.40;10.15;;;;;;;;;;5011518;28;20050;-89
2023/12/07 01:59:50;;;;;;;24.70;11.05;;;;;;;;;;5007186;28;20081;-88
2023/12/07 02:02:33;;;;;;;29.15;11.82;;;;;;;;;;5008858;28;20052;-88
2023/12/07 02:05:14;;;;;;;28.00;11.32;;;;;;;;;;5009750;28;20096;-89
2023/12/07 02:07:47;;;;;;;23.45;12.70;;;;;;;;;;5027602;28;20065;-89
2023/12/07 02:10:28;;;;;;;22.95;12.80;;;;;;;;;;5028305;23;20068;-89
2023/12/07 02:13:10;;;;;;;27.27;11.98;;;;;;;;;;5011255;28;20045;-89
2023/12/07 02:15:45;;;;;;;26.33;11.55;;;;;;;;;;5008569;28;20054;-89
2023/12/07 02:18:37;;;;;;;25.98;13.30;;;;;;;;;;5008252;28;20110;-89
2023/12/07 02:21:27;;;;;;;22.10;11.55;;;;;;;;;;5007681;28;20077;-89
2023/12/07 02:24:11;;;;;;;32.63;12.98;;;;;;;;;;5022735;28;20144;-89
2023/12/07 02:26:52;;;;;;;26.33;11.43;;;;;;;;;;5012318;28;20311;-89
2023/12/07 02:29:24;;;;;;;27.52;12.82;;;;;;;;;;5009990;28;20061;-88
2023/12/07 02:32:09;;;;;;;28.27;12.48;;;;;;;;;;5008784;28;20092;-88
2023/12/07 02:34:50;;;;;;;;;;;;;;;;;;5025461;28;20054;-88
2023/12/07 02:37:38;;;;;;;26.17;12.57;;;;;;;;;;5007795;28;19921;-88
2023/12/07 02:40:21;;;;;;;18.80;10.18;;;;;;;;;;5008690;28;20042;-89
2023/12/07 02:43:04;;;;;;;26.98;13.25;;;;;;;;;;5009825;28;20049;-89
2023/12/07 02:45:45;;;;;;;22.15;11.75;;;;;;;;;;5009174;28;20102;-88
2023/12/07 02:48:26;;;;;;;25.77;11.52;;;;;;;;;;5007815;28;20050;-89
2023/12/07 02:51:10;;;;;;;23.45;11.48;;;;;;;;;;5006396;28;20041;-89
2023/12/07 02:57:21;;;;;;;24.30;11.48;;;;;;;;;;4952715;28;20044;-88
2023/12/07 02:59:53;;;;;;;25.08;11.57;;;;;;;;;;4955484;29;20066;-89
2023/12/07 03:02:31;;;;;;;26.45;11.40;;;;;;;;;;4963773;29;20062;-89
2023/12/07 03:05:11;;;;;;;24.85;12.18;;;;;;;;;;4950365;29;20035;-88
2023/12/07 03:07:43;;;;;;;25.65;10.90;;;;;;;;;;4953765;29;20139;-88
2023/12/07 03:10:18;;;;;;;23.15;10.80;;;;;;;;;;4949674;29;20187;-88
2023/12/07 03:13:01;;;;;;;26.38;11.07;;;;;;;;;;4950037;29;20024;-88
2023/12/07 03:23:23;;;;;;;28.27;12.82;;;;;;;;;;5003514;28;20090;-89
2023/12/07 03:26:03;;;;;;;32.65;12.20;;;;;;;;;;4991803;28;20169;-88
2023/12/07 03:28:37;;;;;;;22.75;11.52;;;;;;;;;;4991094;28;20078;-89
2023/12/07 03:31:19;;;;;;;21.75;11.38;;;;;;;;;;4992030;28;20110;-89
2023/12/07 03:34:01;;;;;;;25.40;12.32;;;;;;;;;;4993870;28;20034;-88
2023/12/07 03:36:36;;;;;;;21.80;11.77;;;;;;;;;;4999492;28;20045;-89
2023/12/07 03:39:14;;;;;;;21.77;11.43;;;;;;;;;;4993335;28;20050;-89
2023/12/07 03:47:04;;;;;;;18.07;9.67;;;;;;;;;;5403705;23;20102;-88
2023/12/07 03:49:44;;;;;;;19.27;9.80;;;;;;;;;;5011840;28;20495;-88
2023/12/07 03:52:28;;;;;;;21.00;10.00;;;;;;;;;;5012261;28;20034;-89
2023/12/07 03:55:10;;;;;;;22.67;11.20;;;;;;;;;;5011320;28;20061;-89
2023/12/07 03:57:51;;;;;;;23.67;12.13;;;;;;;;;;5011974;28;20050;-89
2023/12/07 04:00:24;;;;;;;25.73;11.20;;;;;;;;;;5010596;28;20080;-88
2023/12/07 04:02:57;;;;;;;26.70;10.43;;;;;;;;;;5011343;28;20073;-89
2023/12/07 04:05:40;;;;;;;18.75;10.65;;;;;;;;;;5011687;28;20094;-88
2023/12/07 04:08:17;;;;;;;25.30;12.55;;;;;;;;;;5011592;28;20197;-89
2023/12/07 04:10:46;;;;;;;27.30;12.15;;;;;;;;;;5010467;28;20068;-89
2023/12/07 04:13:18;;;;;;;20.13;11.00;;;;;;;;;;5009913;28;20076;-88
2023/12/07 04:15:47;;;;;;;24.45;10.93;;;;;;;;;;5010105;28;20113;-89
2023/12/07 04:18:29;;;;;;;21.85;12.25;;;;;;;;;;5008575;28;20096;-89
2023/12/07 04:21:10;;;;;;;22.30;11.75;;;;;;;;;;5007166;28;20049;-89
2023/12/07 04:23:41;;;;;;;20.80;10.57;;;;;;;;;;5028931;28;20038;-89
2023/12/07 04:26:14;;;;;;;26.83;11.73;;;;;;;;;;5011931;28;20148;-89
2023/12/07 04:29:02;;;;;;;21.73;10.20;;;;;;;;;;5010711;28;20041;-88
2023/12/07 04:31:38;;;;;;;21.05;11.65;;;;;;;;;;5013755;28;20087;-89
2023/12/07 04:34:40;;;;;;;29.58;12.05;;;;;;;;;;5007485;28;20105;-89
2023/12/07 04:37:17;;;;;;;19.63;10.90;;;;;;;;;;5009880;28;20050;-88
2023/12/07 04:39:58;;;;;;;24.95;11.43;;;;;;;;;;5006846;28;20045;-89
2023/12/07 04:42:46;;;;;;;23.40;10.75;;;;;;;;;;5009503;28;20046;-88
2023/12/07 04:45:27;;;;;;;23.67;11.02;;;;;;;;;;5013095;28;20077;-88
2023/12/07 04:48:25;;;;;;;24.10;12.25;;;;;;;;;;5014195;28;20117;-89
2023/12/07 04:51:09;;;;;;;29.35;11.88;;;;;;;;;;5009738;28;20061;-89
2023/12/07 04:53:53;;;;;;;23.35;11.35;;;;;;;;;;5003720;28;20413;-89
2023/12/07 04:56:45;;;;;;;25.45;10.98;;;;;;;;;;5029295;28;20087;-89
2023/12/07 04:59:29;;;;;;;20.50;10.00;;;;;;;;;;5009363;28;20050;-89
2023/12/07 05:01:58;;;;;;;17.33;9.70;;;;;;;;;;5013903;28;20054;-88
2023/12/07 05:04:39;;;;;;;21.25;10.70;;;;;;;;;;5011400;28;20112;-89
2023/12/07 05:07:22;;;;;;;21.25;10.73;;;;;;;;;;5008985;28;20384;-88
2023/12/07 05:09:52;;;;;;;19.08;9.45;;;;;;;;;;5009041;28;20069;-89
2023/12/07 05:12:33;;;;;;;22.40;9.80;;;;;;;;;;5007783;28;20050;-89
2023/12/07 05:15:05;;;;;;;22.30;11.65;;;;;;;;;;5024237;28;20077;-88
2023/12/07 05:17:52;;;;;;;22.08;10.30;;;;;;;;;;5006501;28;20046;-88
2023/12/07 05:20:26;;;;;;;22.08;10.32;;;;;;;;;;5007164;28;20071;-90
2023/12/07 05:23:07;;;;;;;18.67;10.32;;;;;;;;;;5023049;28;20057;-89
2023/12/07 05:25:55;;;;;;;22.45;10.57;;;;;;;;;;5000939;28;20054;-89
2023/12/07 05:28:40;;;;;;;19.67;10.40;;;;;;;;;;5006223;28;20147;-89
2023/12/07 05:31:21;;;;;;;21.98;10.48;;;;;;;;;;5007465;28;20034;-88
2023/12/07 05:33:53;;;;;;;26.17;11.77;;;;;;;;;;5008235;28;20050;-89
2023/12/07 05:36:39;;;;;;;22.88;11.35;;;;;;;;;;5010671;28;20076;-90
2023/12/07 05:39:17;;;;;;;24.20;10.77;;;;;;;;;;5008667;28;20224;-89
2023/12/07 05:41:47;;;;;;;27.30;12.07;;;;;;;;;;5008957;28;20077;-90
2023/12/07 05:44:22;;;;;;;22.50;10.85;;;;;;;;;;5006324;28;20133;-89
2023/12/07 05:47:00;;;;;;;21.45;11.73;;;;;;;;;;5006223;28;20077;-89
2023/12/07 05:49:42;;;;;;;22.48;9.93;;;;;;;;;;5009545;28;20053;-89
2023/12/07 05:52:25;;;;;;;23.52;10.90;;;;;;;;;;5005638;28;20107;-88
2023/12/07 05:55:13;;;;;;;18.92;10.18;;;;;;;;;;5023721;28;20033;-89
2023/12/07 05:57:54;;;;;;;25.27;11.27;;;;;;;;;;5009620;28;20142;-89
2023/12/07 06:00:37;;;;;;;25.35;11.95;;;;;;;;;;5008371;28;20046;-89
2023/12/07 06:03:09;;;;;;;20.73;9.98;;;;;;;;;;5005196;28;20085;-89
2023/12/07 06:17:47;;;;;;;21.90;10.98;;;;;;;;;;5311043;23;20055;-88
2023/12/07 06:20:29;;;;;;;22.17;9.63;;;;;;;;;;4967607;28;20174;-88
2023/12/07 06:23:02;;;;;;;22.45;11.32;;;;;;;;;;4963426;28;20070;-88
2023/12/07 06:25:42;;;;;;;21.45;10.32;;;;;;;;;;4965555;28;20386;-89
2023/12/07 06:28:23;;;;;;;23.27;9.70;;;;;;;;;;4967970;28;20134;-89
2023/12/07 06:31:08;;;;;;;19.42;9.77;;;;;;;;;;4970878;28;20051;-89
2023/12/07 06:33:49;;;;;;;21.05;10.30;;;;;;;;;;4965195;28;20050;-89
2023/12/07 06:36:30;;;;;;;19.90;9.38;;;;;;;;;;4963719;28;20074;-89
2023/12/07 06:39:11;;;;;;;22.60;10.40;;;;;;;;;;4964878;28;20339;-89
2023/12/07 06:41:39;;;;;;;28.98;10.82;;;;;;;;;;4964500;28;20051;-88
2023/12/07 06:44:22;;;;;;;22.30;9.85;;;;;;;;;;4963501;28;20054;-89
2023/12/07 06:47:07;;;;;;;22.30;10.18;;;;;;;;;;4964996;28;20055;-90
2023/12/07 06:50:13;;;;;;;17.73;9.30;;;;;;;;;;4933987;29;20066;-89
2023/12/07 06:52:57;;;;;;;24.17;9.63;;;;;;;;;;4926471;28;20055;-89
2023/12/07 06:55:37;;;;;;;19.13;10.40;;;;;;;;;;4984149;28;20062;-88
2023/12/07 06:58:19;;;;;;;25.60;10.88;;;;;;;;;;4967096;28;20302;-88
2023/12/07 07:01:00;;;;;;;20.90;9.38;;;;;;;;;;4966000;28;20046;-89
2023/12/07 07:03:44;;;;;;;18.27;9.13;;;;;;;;;;4964518;28;20047;-90
2023/12/07 07:06:25;;;;;;;30.20;10.52;;;;;;;;;;4965071;28;20030;-90
2023/12/07 07:09:07;;;;;;;24.70;11.77;;;;;;;;;;4963963;28;20054;-88
2023/12/07 07:11:48;;;;;;;25.65;11.50;;;;;;;;;;4962969;28;20054;-89
2023/12/07 07:14:22;;;;;;;21.67;9.60;;;;;;;;;;4964021;28;20058;-89
2023/12/07 07:17:04;;;;;;;22.40;10.35;;;;;;;;;;4979082;28;20074;-88
2023/12/07 07:19:45;;;;;;;24.33;11.45;;;;;;;;;;4955663;28;20070;-88
2023/12/07 07:22:28;;;;;;;18.70;9.48;;;;;;;;;;4962039;28;20098;-88
2023/12/07 07:25:06;;;;;;;22.33;9.27;;;;;;;;;;4963170;28;20055;-89
2023/12/07 07:27:49;;;;;;;22.42;9.60;;;;;;;;;;4960973;28;20082;-88
2023/12/07 07:30:31;;;;;;;22.35;9.90;;;;;;;;;;4978161;28;20082;-89
2023/12/07 07:33:15;;;;;;;19.00;9.30;;;;;;;;;;4963351;28;20042;-89
2023/12/07 07:35:58;;;;;;;22.45;9.93;;;;;;;;;;4964121;28;20047;-90
2023/12/07 07:38:31;;;;;;;17.55;8.73;;;;;;;;;;4964485;28;20162;-89
2023/12/07 07:41:14;;;;;;;21.48;9.27;;;;;;;;;;4965146;28;20046;-89
2023/12/07 07:44:02;;;;;;;20.83;9.65;;;;;;;;;;4978835;28;20203;-89
2023/12/07 07:46:46;;;;;;;16.80;9.27;;;;;;;;;;4968093;28;20061;-88
2023/12/07 07:49:26;;;;;;;21.48;9.60;;;;;;;;;;4971544;28;20034;-90
2023/12/07 07:52:08;;;;;;;22.15;9.68;;;;;;;;;;4964909;28;20054;-90
2023/12/07 07:54:37;;;;;;;24.30;10.50;;;;;;;;;;4962707;28;20167;-89
2023/12/07 07:57:18;;;;;;;22.52;9.88;;;;;;;;;;4972192;28;20102;-89
2023/12/07 07:59:50;;;;;;;19.63;9.95;;;;;;;;;;4965015;28;20127;-89
2023/12/07 16:42:48;;;;;;;33.58;13.68;;;;;;;;;;5232730;23;20062;-91
2023/12/07 16:45:56;;;;;;;;;;;;;;;;;;;;;
2023/12/07 16:49:03;;;;;;;32.20;13.98;;;;;;;;;;5022660;28;20041;-91
2023/12/07 16:52:02;;;;;;;20.63;10.48;;;;;;;;;;5004283;28;20041;-91
2023/12/07 16:58:57;;;;;;;;;;;;;;;;;;;;;
2023/12/07 18:22:06;;;;;;;33.95;15.18;;;;;;;;;;4945605;29;20086;-91
2023/12/07 18:25:20;;;;;;;35.20;15.55;;;;;;;;;;4933487;29;20043;-91
2023/12/07 18:32:03;;;;;;;37.45;15.90;;;;;;;;;;4949178;28;20044;-90
2023/12/07 18:41:11;;;;;;;40.08;16.42;;;;;;;;;;5301482;23;20046;-91
2023/12/07 18:44:07;;;;;;;43.13;15.52;;;;;;;;;;4994781;28;20037;-91
2023/12/07 18:47:18;;;;;;;38.88;17.63;;;;;;;;;;4993828;28;20053;-91
2023/12/07 18:50:12;;;;;;;40.75;16.75;;;;;;;;;;4993575;28;20035;-91
2023/12/07 18:53:07;;;;;;;38.63;15.13;;;;;;;;;;4978135;28;20030;-92
2023/12/07 18:56:36;;;;;;;;;;;;;;;;;;;;;
2023/12/07 18:59:23;;;;;;;39.72;14.10;;;;;;;;;;4988547;28;20042;-92
2023/12/07 19:02:37;;;;;;;41.17;15.50;;;;;;;;;;4987741;28;20035;-92
2023/12/07 19:18:39;;;;;;;38.08;17.20;;;;;;;;;;5512268;23;20066;-91
2023/12/07 19:21:47;;;;;;;;;;;;;;;;;;;;;
2023/12/07 19:24:36;;;;;;;33.20;14.95;;;;;;;;;;5023787;28;20041;-91
2023/12/07 19:33:48;;;;;;;33.85;12.45;;;;;;;;;;5030055;28;20048;-92
2023/12/07 19:36:46;;;;;;;35.67;14.70;;;;;;;;;;5034269;28;20208;-91
2023/12/07 19:39:35;;;;;;;37.00;16.17;;;;;;;;;;5029599;28;20042;-91
2023/12/07 19:42:26;;;;;;;32.25;13.48;;;;;;;;;;5046063;28;20033;-92
2023/12/07 19:45:35;;;;;;;25.38;13.35;;;;;;;;;;5045518;28;20104;-91
2023/12/07 19:48:23;;;;;;;20.08;10.93;;;;;;;;;;5030113;28;20096;-92
2023/12/07 19:51:12;;;;;;;27.40;12.38;;;;;;;;;;5030063;28;20083;-91
2023/12/07 19:54:11;;;;;;;28.25;12.80;;;;;;;;;;5045544;28;20049;-91
2023/12/07 19:56:59;;;;;;;33.28;14.65;;;;;;;;;;5029127;28;20069;-92
2023/12/07 19:59:38;;;;;;;38.38;15.23;;;;;;;;;;5028505;28;20459;-92
2023/12/07 20:02:37;;;;;;;37.60;15.02;;;;;;;;;;5027944;28;20041;-91
2023/12/07 20:05:42;;;;;;;32.65;14.82;;;;;;;;;;4952525;29;20047;-91
2023/12/07 20:08:38;;;;;;;37.17;13.20;;;;;;;;;;5033543;28;20076;-92
2023/12/07 20:11:27;;;;;;;44.42;15.68;;;;;;;;;;5033463;28;20057;-91
2023/12/07 20:14:13;;;;;;;35.63;14.07;;;;;;;;;;5052208;28;20037;-90
2023/12/07 20:17:02;;;;;;;36.85;13.77;;;;;;;;;;5032470;28;20076;-92
2023/12/07 20:20:00;;;;;;;29.30;13.93;;;;;;;;;;5031875;28;20081;-91
2023/12/07 20:22:54;;;;;;;38.35;15.23;;;;;;;;;;5048898;28;20041;-90
2023/12/07 20:25:54;;;;;;;;;;;;;;;;;;;;;
2023/12/07 20:28:47;;;;;;;29.23;14.35;;;;;;;;;;5048246;28;20049;-92
2023/12/07 20:31:54;;;;;;;26.98;11.60;;;;;;;;;;5147038;23;20033;-91
2023/12/07 20:34:36;;;;;;;29.50;13.20;;;;;;;;;;4995912;28;20048;-92
2023/12/07 20:37:40;;;;;;;32.97;13.75;;;;;;;;;;4990496;28;20073;-92
2023/12/07 20:40:31;;;;;;;28.40;12.82;;;;;;;;;;5010807;28;20152;-92
2023/12/07 20:43:22;;;;;;;32.25;14.00;;;;;;;;;;5007027;28;20034;-92
2023/12/07 20:46:33;;;;;;;31.55;14.43;;;;;;;;;;5008700;28;20321;-91
2023/12/07 20:49:27;;;;;;;29.73;12.63;;;;;;;;;;5005449;28;20081;-92
2023/12/07 20:52:25;;;;;;;34.20;14.77;;;;;;;;;;4994181;28;20053;-91
2023/12/07 20:55:16;;;;;;;25.55;12.77;;;;;;;;;;4991239;28;20054;-92
2023/12/07 20:58:03;;;;;;;37.55;14.27;;;;;;;;;;4992106;28;20047;-91
2023/12/07 21:00:59;;;;;;;30.70;13.98;;;;;;;;;;4984963;28;20052;-91
2023/12/07 21:03:50;;;;;;;32.88;13.90;;;;;;;;;;4997844;28;20051;-91
2023/12/07 21:06:43;;;;;;;29.48;14.20;;;;;;;;;;4995900;28;20047;-92
2023/12/07 21:09:39;;;;;;;26.65;11.98;;;;;;;;;;4996924;28;20081;-92
2023/12/07 21:12:43;;;;;;;26.92;10.85;;;;;;;;;;4999640;28;20050;-90
2023/12/07 21:15:28;;;;;;;19.30;10.02;;;;;;;;;;5011181;28;20037;-91
2023/12/07 21:18:28;;;;;;;31.77;12.32;;;;;;;;;;5010088;28;20042;-91
2023/12/07 21:21:15;;;;;;;28.15;12.93;;;;;;;;;;4993929;28;20076;-91
2023/12/07 21:24:07;;;;;;;38.90;13.82;;;;;;;;;;4993645;28;20126;-91
2023/12/07 21:27:06;;;;;;;;;;;;;;;;;;;;;
2023/12/07 21:29:51;;;;;;;29.90;13.02;;;;;;;;;;5010546;28;20110;-90
2023/12/07 21:32:30;;;;;;;31.63;12.88;;;;;;;;;;5013375;28;20054;-93
2023/12/07 21:35:20;;;;;;;34.33;12.73;;;;;;;;;;5027770;28;20117;-91
2023/12/07 21:37:54;;;;;;;31.40;14.05;;;;;;;;;;5014392;28;20453;-92
2023/12/07 21:40:37;;;;;;;28.80;13.43;;;;;;;;;;5015621;28;20125;-91
2023/12/07 21:43:25;;;;;;;17.35;8.80;;;;;;;;;;5017522;28;20029;-91
2023/12/07 21:46:02;;;;;;;20.75;10.00;;;;;;;;;;5020991;28;20042;-92
2023/12/07 21:48:39;;;;;;;16.92;8.70;;;;;;;;;;5036407;28;20205;-91
2023/12/07 21:51:29;;;;;;;29.88;12.65;;;;;;;;;;5021079;28;20038;-92
2023/12/07 21:54:17;;;;;;;28.40;10.10;;;;;;;;;;5214800;23;20046;-91
2023/12/07 21:57:04;;;;;;;25.23;9.93;;;;;;;;;;5013209;28;20146;-91
2023/12/07 21:59:49;;;;;;;24.27;9.85;;;;;;;;;;5000894;28;20029;-92
2023/12/07 22:02:33;;;;;;;19.13;8.88;;;;;;;;;;5001228;28;20046;-91
2023/12/07 22:05:23;;;;;;;19.98;10.10;;;;;;;;;;5016175;28;20339;-90
2023/12/07 22:08:15;;;;;;;24.00;12.70;;;;;;;;;;4993871;28;20069;-92
2023/12/07 22:10:58;;;;;;;28.33;12.30;;;;;;;;;;4994331;28;20050;-90
2023/12/07 22:13:41;;;;;;;35.85;13.25;;;;;;;;;;4991474;28;20190;-92
2023/12/07 22:16:26;;;;;;;20.13;9.82;;;;;;;;;;4995360;28;20077;-91
2023/12/07 22:27:27;;;;;;;26.92;13.15;;;;;;;;;;5028335;28;20044;-92
2023/12/07 22:30:32;;;;;;;23.83;11.40;;;;;;;;;;5019253;28;20041;-91
2023/12/07 22:33:21;;;;;;;19.65;10.82;;;;;;;;;;5015193;28;20080;-91
2023/12/07 22:36:01;;;;;;;27.95;12.35;;;;;;;;;;5014711;28;20425;-91
2023/12/07 22:38:42;;;;;;;31.48;12.23;;;;;;;;;;5014571;28;20046;-91
2023/12/07 22:41:23;;;;;;;24.67;10.65;;;;;;;;;;5013358;28;20181;-90
2023/12/07 22:44:04;;;;;;;20.85;10.30;;;;;;;;;;5028752;28;20077;-91
2023/12/07 22:46:42;;;;;;;26.23;12.32;;;;;;;;;;5029367;28;20050;-90
2023/12/07 22:49:26;;;;;;;20.02;7.25;;;;;;;;;;5024200;28;20057;-91
2023/12/07 22:52:13;;;;;;;27.38;11.43;;;;;;;;;;5009659;28;20085;-90
2023/12/07 22:54:57;;;;;;;23.42;10.65;;;;;;;;;;5013013;28;20065;-91
2023/12/07 22:57:39;;;;;;;23.65;10.38;;;;;;;;;;5015452;28;20054;-91
2023/12/07 23:00:27;;;;;;;15.80;7.78;;;;;;;;;;5012355;28;20057;-91
2023/12/07 23:03:10;;;;;;;27.15;11.40;;;;;;;;;;5012394;28;20066;-91
2023/12/07 23:05:51;;;;;;;14.07;6.53;;;;;;;;;;5012291;28;20109;-91
2023/12/07 23:08:28;;;;;;;22.45;11.05;;;;;;;;;;5028560;28;20034;-91
2023/12/07 23:11:05;;;;;;;21.70;11.45;;;;;;;;;;5027752;28;20054;-92
2023/12/07 23:13:37;;;;;;;22.27;9.68;;;;;;;;;;5012871;28;20044;-91
2023/12/07 23:16:17;;;;;;;24.42;10.05;;;;;;;;;;5015504;28;20046;-92
2023/12/07 23:18:47;;;;;;;23.33;9.27;;;;;;;;;;5011645;28;20057;-91
2023/12/07 23:21:35;;;;;;;17.30;7.50;;;;;;;;;;5025797;28;20045;-93
2023/12/07 23:24:13;;;;;;;27.75;12.77;;;;;;;;;;5028093;28;20050;-90
2023/12/07 23:26:47;;;;;;;22.13;11.52;;;;;;;;;;5029409;28;20060;-91
2023/12/07 23:29:34;;;;;;;20.73;10.25;;;;;;;;;;5012550;28;20110;-90
2023/12/07 23:32:16;;;;;;;17.50;9.60;;;;;;;;;;5012503;28;20104;-92
2023/12/07 23:34:58;;;;;;;29.88;11.15;;;;;;;;;;5027364;28;20089;-93
2023/12/07 23:37:33;;;;;;;24.13;10.75;;;;;;;;;;5014399;28;20038;-91
2023/12/07 23:40:14;;;;;;;23.98;10.63;;;;;;;;;;5013975;28;20034;-90
2023/12/07 23:42:53;;;;;;;25.38;9.32;;;;;;;;;;5016802;28;20065;-91
2023/12/07 23:45:39;;;;;;;17.88;7.57;;;;;;;;;;5016450;28;20058;-91
2023/12/07 23:48:19;;;;;;;25.50;12.32;;;;;;;;;;5014312;28;20221;-91
2023/12/07 23:50:50;;;;;;;25.92;10.10;;;;;;;;;;5031789;28;20111;-90
2023/12/07 23:53:32;;;;;;;33.92;10.93;;;;;;;;;;5030958;28;20105;-91
2023/12/07 23:56:17;;;;;;;25.40;11.23;;;;;;;;;;5019970;28;20048;-91
2023/12/07 23:58:58;;;;;;;19.23;8.90;;;;;;;;;;5018055;28;20030;-91
